createdAt,value
2019-05-19T00:00:57.109Z,5.73
2019-05-19T00:03:28.289Z,6.87
2019-05-19T00:05:58.855Z,9.10
2019-05-19T00:08:29.218Z,6.40
2019-05-19T00:10:59.878Z,6.53
2019-05-19T00:13:30.436Z,8.17
2019-05-19T00:16:00.917Z,7.27
2019-05-19T00:18:31.299Z,8.17
2019-05-19T00:21:01.833Z,6.40
2019-05-19T00:23:32.134Z,7.97
2019-05-19T00:26:02.622Z,8.40
2019-05-19T00:28:33.172Z,6.57
2019-05-19T00:31:03.618Z,7.33
2019-05-19T00:33:33.920Z,7.90
2019-05-19T00:36:04.394Z,8.90
2019-05-19T00:38:34.772Z,9.03
2019-05-19T00:41:05.065Z,7.33
2019-05-19T00:43:35.672Z,7.17
2019-05-19T00:46:06.092Z,7.77
2019-05-19T00:48:36.522Z,10.53
2019-05-19T00:51:06.897Z,6.30
2019-05-19T00:53:37.321Z,8.40
2019-05-19T00:56:07.808Z,8.07
2019-05-19T00:58:38.085Z,6.60
2019-05-19T01:01:08.577Z,8.40
2019-05-19T01:03:39.289Z,11.43
2019-05-19T01:06:09.615Z,8.00
2019-05-19T01:08:40.530Z,8.33
2019-05-19T01:11:10.849Z,7.27
2019-05-19T01:13:41.137Z,6.90
2019-05-19T01:16:12.513Z,6.40
2019-05-19T01:18:42.817Z,8.57
2019-05-19T01:21:13.408Z,10.10
2019-05-19T01:23:43.726Z,8.90
2019-05-19T01:26:14.113Z,10.20
2019-05-19T01:28:44.562Z,6.33
2019-05-19T01:31:15.149Z,9.40
2019-05-19T01:33:45.611Z,9.13
2019-05-19T01:36:15.965Z,9.83
2019-05-19T01:38:46.828Z,9.77
2019-05-19T01:41:17.177Z,9.10
2019-05-19T01:43:47.675Z,9.20
2019-05-19T01:46:18.052Z,8.60
2019-05-19T01:48:48.552Z,6.90
2019-05-19T01:51:18.938Z,8.03
2019-05-19T01:53:49.262Z,7.60
2019-05-19T01:56:19.662Z,5.57
2019-05-19T01:58:50.421Z,6.60
2019-05-19T02:01:20.908Z,8.80
2019-05-19T02:03:51.194Z,6.57
2019-05-19T02:06:21.815Z,6.87
2019-05-19T02:08:52.264Z,9.40
2019-05-19T02:11:22.661Z,9.00
2019-05-19T02:13:53.066Z,7.07
2019-05-19T02:16:23.851Z,8.20
2019-05-19T02:18:54.303Z,9.40
2019-05-19T02:21:25.085Z,7.17
2019-05-19T02:23:55.463Z,8.23
2019-05-19T02:26:25.992Z,7.37
2019-05-19T02:28:56.687Z,9.20
2019-05-19T02:31:27.046Z,7.33
2019-05-19T02:33:57.466Z,9.37
2019-05-19T02:36:28.119Z,8.63
2019-05-19T02:38:58.456Z,7.87
2019-05-19T02:41:29.005Z,10.73
2019-05-19T02:44:00.391Z,7.80
2019-05-19T02:46:31.073Z,10.20
2019-05-19T02:49:01.998Z,12.60
2019-05-19T02:51:34.350Z,12.23
2019-05-19T02:54:05.343Z,10.27
2019-05-19T02:56:35.786Z,11.00
2019-05-19T02:59:06.806Z,10.40
2019-05-19T03:01:56.156Z,9.77
2019-05-19T03:04:26.626Z,11.57
2019-05-19T03:06:56.938Z,10.10
2019-05-19T03:09:27.308Z,12.53
2019-05-19T03:11:57.708Z,14.10
2019-05-19T03:14:28.491Z,12.00
2019-05-19T03:16:58.814Z,10.90
2019-05-19T03:19:29.191Z,10.97
2019-05-19T03:21:59.519Z,13.47
2019-05-19T03:24:30.175Z,14.20
2019-05-19T03:27:00.487Z,13.27
2019-05-19T03:29:38.121Z,12.20
2019-05-19T03:32:25.065Z,15.00
2019-05-19T03:34:55.413Z,13.40
2019-05-19T03:37:25.753Z,14.07
2019-05-19T03:39:56.216Z,13.10
2019-05-19T03:42:26.909Z,14.97
2019-05-19T03:44:57.275Z,14.77
2019-05-19T03:47:27.665Z,12.97
2019-05-19T03:49:58.454Z,11.53
2019-05-19T03:52:28.762Z,13.87
2019-05-19T03:54:59.134Z,12.50
2019-05-19T03:57:29.627Z,12.33
2019-05-19T04:00:00.340Z,16.03
2019-05-19T04:02:30.721Z,13.83
2019-05-19T04:05:01.024Z,13.93
2019-05-19T04:07:31.463Z,13.00
2019-05-19T04:10:01.922Z,17.00
2019-05-19T04:12:32.252Z,17.57
2019-05-19T04:15:02.609Z,19.47
2019-05-19T04:17:33.058Z,16.83
2019-05-19T04:20:03.644Z,19.93
2019-05-19T04:22:34.041Z,19.20
2019-05-19T04:25:04.899Z,21.50
2019-05-19T04:27:35.282Z,18.77
2019-05-19T04:30:06.071Z,17.30
2019-05-19T04:32:36.663Z,19.67
2019-05-19T04:35:07.325Z,24.17
2019-05-19T04:37:37.924Z,20.80
2019-05-19T04:40:08.433Z,17.30
2019-05-19T04:42:38.762Z,20.27
2019-05-19T04:45:09.142Z,19.77
2019-05-19T04:47:39.695Z,22.27
2019-05-19T04:50:10.099Z,20.40
2019-05-19T04:52:40.521Z,14.37
2019-05-19T04:55:10.878Z,19.27
2019-05-19T04:57:41.510Z,16.83
2019-05-19T05:00:12.019Z,18.33
2019-05-19T05:02:42.391Z,21.13
2019-05-19T05:05:12.927Z,17.30
2019-05-19T05:07:43.238Z,19.40
2019-05-19T05:10:13.765Z,16.80
2019-05-19T05:12:44.729Z,19.33
2019-05-19T05:15:15.238Z,19.03
2019-05-19T05:17:45.548Z,18.50
2019-05-19T05:20:17.202Z,25.37
2019-05-19T05:22:47.492Z,20.10
2019-05-19T05:25:17.801Z,19.70
2019-05-19T05:27:48.119Z,23.50
2019-05-19T05:30:18.688Z,23.97
2019-05-19T05:32:49.081Z,20.37
2019-05-19T05:35:20.437Z,25.00
2019-05-19T05:37:50.824Z,25.83
2019-05-19T05:40:21.260Z,19.57
2019-05-19T05:42:51.839Z,26.30
2019-05-19T05:45:22.192Z,23.13
2019-05-19T05:47:52.532Z,21.73
2019-05-19T05:50:22.933Z,21.93
2019-05-19T05:52:55.041Z,21.97
2019-05-19T05:55:25.973Z,22.57
2019-05-19T05:57:56.446Z,20.87
2019-05-19T06:00:27.116Z,18.37
2019-05-19T06:02:57.498Z,22.00
2019-05-19T06:05:27.817Z,19.80
2019-05-19T06:07:58.108Z,20.70
2019-05-19T06:10:28.517Z,18.10
2019-05-19T06:12:59.676Z,16.73
2019-05-19T06:15:30.464Z,17.00
2019-05-19T06:18:00.773Z,14.13
2019-05-19T06:20:31.085Z,14.23
2019-05-19T06:23:01.474Z,15.87
2019-05-19T06:25:32.307Z,16.77
2019-05-19T06:28:03.153Z,17.03
2019-05-19T06:30:33.572Z,17.20
2019-05-19T06:33:04.564Z,15.93
2019-05-19T06:35:34.949Z,14.53
2019-05-19T06:38:05.370Z,16.93
2019-05-19T06:40:35.662Z,16.37
2019-05-19T06:43:06.435Z,16.97
2019-05-19T06:45:36.828Z,12.43
2019-05-19T06:48:07.150Z,15.97
2019-05-19T06:50:40.628Z,12.87
2019-05-19T06:53:13.851Z,10.80
2019-05-19T06:55:41.671Z,10.80
2019-05-19T06:58:11.995Z,13.23
2019-05-19T07:00:42.920Z,12.43
2019-05-19T07:03:13.217Z,11.17
2019-05-19T07:05:43.546Z,10.50
2019-05-19T07:08:14.229Z,9.80
2019-05-19T07:10:44.616Z,7.97
2019-05-19T07:13:15.003Z,8.93
2019-05-19T07:15:45.371Z,8.03
2019-05-19T07:18:15.853Z,8.43
2019-05-19T07:20:46.257Z,9.17
2019-05-19T07:23:27.309Z,5.30
2019-05-19T07:25:48.643Z,6.03
2019-05-19T07:28:18.986Z,6.17
2019-05-19T07:30:49.398Z,4.93
2019-05-19T07:33:21.011Z,5.97
2019-05-19T07:35:51.352Z,8.43
2019-05-19T07:38:21.690Z,6.10
2019-05-19T07:40:52.043Z,7.77
2019-05-19T07:43:22.752Z,6.63
2019-05-19T07:45:53.087Z,8.23
2019-05-19T07:48:23.450Z,6.30
2019-05-19T07:50:53.750Z,6.83
2019-05-19T07:53:24.094Z,6.70
2019-05-19T07:55:54.721Z,7.03
2019-05-19T07:58:25.111Z,10.10
2019-05-19T08:00:57.092Z,7.33
2019-05-19T08:03:27.744Z,8.03
2019-05-19T08:05:58.164Z,6.00
2019-05-19T08:08:28.654Z,7.20
2019-05-19T08:11:00.007Z,7.30
2019-05-19T08:13:30.369Z,6.37
2019-05-19T08:16:00.816Z,6.17
2019-05-19T08:18:31.273Z,4.93
2019-05-19T08:21:01.673Z,6.67
2019-05-19T08:23:31.963Z,6.13
2019-05-19T08:26:02.445Z,8.23
2019-05-19T08:28:33.147Z,7.40
2019-05-19T08:31:03.598Z,3.90
2019-05-19T08:33:34.074Z,4.90
2019-05-19T08:36:04.753Z,5.40
2019-05-19T08:38:35.091Z,6.03
2019-05-19T08:41:05.507Z,4.87
2019-05-19T08:43:36.101Z,7.37
2019-05-19T08:46:06.520Z,4.80
2019-05-19T08:48:36.883Z,6.57
2019-05-19T08:51:07.750Z,5.27
2019-05-19T08:53:38.060Z,4.77
2019-05-19T08:56:08.453Z,6.57
2019-05-19T08:58:38.817Z,7.87
2019-05-19T09:01:09.151Z,6.43
2019-05-19T09:03:39.612Z,6.00
2019-05-19T09:06:09.938Z,6.67
2019-05-19T09:08:40.251Z,6.67
2019-05-19T09:11:10.618Z,6.70
2019-05-19T09:13:40.957Z,5.77
2019-05-19T09:16:11.325Z,5.00
2019-05-19T09:18:41.932Z,6.00
2019-05-19T09:21:12.314Z,6.07
2019-05-19T09:23:42.698Z,4.70
2019-05-19T09:26:13.018Z,5.43
2019-05-19T09:28:43.518Z,5.00
2019-05-19T09:31:13.862Z,6.10
2019-05-19T09:33:44.194Z,5.70
2019-05-19T09:36:14.587Z,5.10
2019-05-19T09:38:44.968Z,5.10
2019-05-19T09:41:15.537Z,4.80
2019-05-19T09:43:45.836Z,5.37
2019-05-19T09:46:16.227Z,3.73
2019-05-19T09:48:48.426Z,3.97
2019-05-19T09:51:18.859Z,4.70
2019-05-19T09:53:49.617Z,4.53
2019-05-19T09:56:19.989Z,6.17
2019-05-19T09:58:50.423Z,4.60
2019-05-19T10:01:21.021Z,4.57
2019-05-19T10:03:51.489Z,5.03
2019-05-19T10:06:21.907Z,4.50
2019-05-19T10:09:01.376Z,3.90
2019-05-19T10:12:02.032Z,3.97
2019-05-19T10:14:32.337Z,3.27
2019-05-19T10:17:02.768Z,3.43
2019-05-19T10:19:33.314Z,3.50
2019-05-19T10:22:03.596Z,3.83
2019-05-19T10:24:34.055Z,3.47
2019-05-19T10:27:05.381Z,3.07
2019-05-19T10:29:35.842Z,4.20
2019-05-19T10:32:06.307Z,3.40
2019-05-19T10:34:36.822Z,2.80
2019-05-19T10:37:07.097Z,2.87
2019-05-19T10:39:37.438Z,4.70
2019-05-19T10:42:08.127Z,4.00
2019-05-19T10:44:38.579Z,3.53
2019-05-19T10:47:09.040Z,3.00
2019-05-19T10:49:42.525Z,3.93
2019-05-19T10:52:11.795Z,3.40
2019-05-19T10:54:42.159Z,2.73
2019-05-19T10:57:12.554Z,3.80
2019-05-19T10:59:43.151Z,3.97
2019-05-19T11:02:13.538Z,2.20
2019-05-19T11:04:43.844Z,2.13
2019-05-19T11:07:14.205Z,3.03
2019-05-19T11:09:45.538Z,2.80
2019-05-19T11:12:16.097Z,2.60
2019-05-19T11:14:46.509Z,2.73
2019-05-19T11:17:16.829Z,2.60
2019-05-19T11:19:47.221Z,2.60
2019-05-19T11:22:17.617Z,2.20
2019-05-19T11:24:48.137Z,3.00
2019-05-19T11:27:18.516Z,3.13
2019-05-19T11:29:48.840Z,2.40
2019-05-19T11:32:19.158Z,2.40
2019-05-19T11:34:49.530Z,2.70
2019-05-19T11:37:20.105Z,2.20
2019-05-19T11:39:50.412Z,4.00
2019-05-19T11:42:20.801Z,2.90
2019-05-19T11:44:51.204Z,2.00
2019-05-19T11:47:21.551Z,2.80
2019-05-19T11:49:52.150Z,2.23
2019-05-19T11:52:22.479Z,2.50
2019-05-19T11:54:52.838Z,2.77
2019-05-19T11:57:23.257Z,2.80
2019-05-19T11:59:54.097Z,2.53
2019-05-19T12:02:24.625Z,2.60
2019-05-19T12:04:55.082Z,4.17
2019-05-19T12:07:25.508Z,2.80
2019-05-19T12:09:55.940Z,2.73
2019-05-19T12:12:26.779Z,3.03
2019-05-19T12:14:57.167Z,2.80
2019-05-19T12:17:27.473Z,4.10
2019-05-19T12:19:57.781Z,3.97
2019-05-19T12:22:28.186Z,2.60
2019-05-19T12:24:58.892Z,3.50
2019-05-19T12:27:29.186Z,2.90
2019-05-19T12:29:59.563Z,2.93
2019-05-19T12:32:30.077Z,3.20
2019-05-19T12:35:01.065Z,3.50
2019-05-19T12:37:31.679Z,3.00
2019-05-19T12:40:01.989Z,3.60
2019-05-19T12:42:32.677Z,3.40
2019-05-19T12:45:03.380Z,3.10
2019-05-19T12:47:33.765Z,4.27
2019-05-19T12:50:04.855Z,3.10
2019-05-19T12:52:35.296Z,3.07
2019-05-19T12:55:05.705Z,3.43
2019-05-19T12:57:36.182Z,4.30
2019-05-19T13:00:07.336Z,3.33
2019-05-19T13:02:38.752Z,3.60
2019-05-19T13:05:09.055Z,4.17
2019-05-19T13:07:39.344Z,3.37
2019-05-19T13:10:10.508Z,3.40
2019-05-19T13:12:41.221Z,4.50
2019-05-19T13:15:11.694Z,3.47
2019-05-19T13:17:42.352Z,2.90
2019-05-19T13:20:13.051Z,3.23
2019-05-19T13:22:43.354Z,4.13
2019-05-19T13:25:13.751Z,3.07
2019-05-19T13:27:44.411Z,4.43
2019-05-19T13:30:14.750Z,3.43
2019-05-19T13:32:45.097Z,3.13
2019-05-19T13:35:15.604Z,3.90
2019-05-19T13:37:46.162Z,3.60
2019-05-19T13:40:16.675Z,4.90
2019-05-19T13:42:47.301Z,4.90
2019-05-19T13:45:17.944Z,3.90
2019-05-19T13:47:48.280Z,3.13
2019-05-19T13:50:19.180Z,2.90
2019-05-19T13:52:51.188Z,3.47
2019-05-19T13:55:21.551Z,3.70
2019-05-19T13:57:52.040Z,3.90
2019-05-19T14:00:22.421Z,3.30
2019-05-19T14:02:53.092Z,3.17
2019-05-19T14:05:23.488Z,3.87
2019-05-19T14:07:53.880Z,4.53
2019-05-19T14:10:24.672Z,3.87
2019-05-19T14:12:55.087Z,4.43
2019-05-19T14:15:25.458Z,3.53
2019-05-19T14:17:56.155Z,3.33
2019-05-19T14:20:26.553Z,3.57
2019-05-19T14:22:56.924Z,2.80
2019-05-19T14:25:27.212Z,3.47
2019-05-19T14:27:57.584Z,2.87
2019-05-19T14:30:28.113Z,2.50
2019-05-19T14:32:58.469Z,2.50
2019-05-19T14:35:28.818Z,3.13
2019-05-19T14:37:59.207Z,4.73
2019-05-19T14:40:29.773Z,2.77
2019-05-19T14:43:01.978Z,3.43
2019-05-19T14:45:32.495Z,3.90
2019-05-19T14:48:02.996Z,3.40
2019-05-19T14:50:33.466Z,3.47
2019-05-19T14:53:03.836Z,2.80
2019-05-19T14:55:34.277Z,2.63
2019-05-19T14:58:05.209Z,3.90
2019-05-19T15:00:35.577Z,2.57
2019-05-19T15:03:06.053Z,3.20
2019-05-19T15:05:36.762Z,3.27
2019-05-19T15:08:07.153Z,3.03
2019-05-19T15:10:37.585Z,2.70
2019-05-19T15:13:08.270Z,2.80
2019-05-19T15:15:38.703Z,3.57
2019-05-19T15:18:09.168Z,4.03
2019-05-19T15:20:39.924Z,3.20
2019-05-19T15:23:10.303Z,2.70
2019-05-19T15:25:40.765Z,2.97
2019-05-19T15:28:11.241Z,3.40
2019-05-19T15:30:41.650Z,3.30
2019-05-19T15:33:11.982Z,3.17
2019-05-19T15:35:42.539Z,2.93
2019-05-19T15:38:13.009Z,2.27
2019-05-19T15:40:43.420Z,2.87
2019-05-19T15:43:13.813Z,3.07
2019-05-19T15:45:44.840Z,2.57
2019-05-19T15:48:15.237Z,2.50
2019-05-19T15:50:45.585Z,3.23
2019-05-19T15:53:16.235Z,2.97
2019-05-19T15:55:46.636Z,2.67
2019-05-19T15:58:17.333Z,2.80
2019-05-19T16:00:48.030Z,2.93
2019-05-19T16:03:18.446Z,2.47
2019-05-19T16:05:49.333Z,2.53
2019-05-19T16:08:19.724Z,3.47
2019-05-19T16:10:50.225Z,2.63
2019-05-19T16:13:22.025Z,3.27
2019-05-19T16:15:53.526Z,3.17
2019-05-19T16:18:24.033Z,2.50
2019-05-19T16:20:54.413Z,2.77
2019-05-19T16:23:24.773Z,3.60
2019-05-19T16:25:55.327Z,3.10
2019-05-19T16:28:30.864Z,2.97
2019-05-19T16:30:57.990Z,3.27
2019-05-19T16:33:28.973Z,3.57
2019-05-19T16:35:59.829Z,2.87
2019-05-19T16:38:30.509Z,2.87
2019-05-19T16:41:00.921Z,3.27
2019-05-19T16:43:32.753Z,4.40
2019-05-19T16:46:03.304Z,2.33
2019-05-19T16:48:33.715Z,3.50
2019-05-19T16:51:04.991Z,3.20
2019-05-19T16:53:36.631Z,2.77
2019-05-19T16:56:07.079Z,3.30
2019-05-19T16:58:44.852Z,2.30
2019-05-19T17:01:09.382Z,3.07
2019-05-19T17:03:39.851Z,2.70
2019-05-19T17:06:10.473Z,2.27
2019-05-19T17:08:40.918Z,3.00
2019-05-19T17:11:18.275Z,3.03
2019-05-19T17:13:43.609Z,2.83
2019-05-19T17:16:14.160Z,3.30
2019-05-19T17:18:44.573Z,3.10
2019-05-19T17:21:14.937Z,2.90
2019-05-19T17:23:45.276Z,2.63
2019-05-19T17:26:15.965Z,3.50
2019-05-19T17:28:59.823Z,3.10
2019-05-19T17:31:18.415Z,2.40
2019-05-19T17:33:48.736Z,2.90
2019-05-19T17:36:19.526Z,3.10
2019-05-19T17:38:50.067Z,3.90
2019-05-19T17:41:20.449Z,3.20
2019-05-19T17:43:51.445Z,3.07
2019-05-19T17:46:21.888Z,3.17
2019-05-19T17:48:52.676Z,3.23
2019-05-19T17:51:23.104Z,3.27
2019-05-19T17:53:53.439Z,4.00
2019-05-19T17:56:24.553Z,4.40
2019-05-19T17:58:55.609Z,3.60
2019-05-19T18:01:25.977Z,4.37
2019-05-19T18:03:56.620Z,5.17
2019-05-19T18:06:29.687Z,4.40
2019-05-19T18:08:59.366Z,4.23
2019-05-19T18:11:29.734Z,5.80
2019-05-19T18:14:02.716Z,5.03
2019-05-19T18:16:33.240Z,3.77
2019-05-19T18:19:03.849Z,2.93
2019-05-19T18:21:34.262Z,3.30
2019-05-19T18:24:05.492Z,3.43
2019-05-19T18:26:36.761Z,3.43
2019-05-19T18:29:07.330Z,3.93
2019-05-19T18:31:38.687Z,10.50
2019-05-19T18:34:09.217Z,4.33
2019-05-19T18:36:39.854Z,3.17
2019-05-19T18:39:10.263Z,3.07
2019-05-19T18:41:40.831Z,3.40
2019-05-19T18:44:11.500Z,2.80
2019-05-19T18:46:41.919Z,3.53
2019-05-19T18:49:12.293Z,2.93
2019-05-19T18:51:42.804Z,3.53
2019-05-19T18:54:13.403Z,3.37
2019-05-19T18:56:43.788Z,2.83
2019-05-19T18:59:14.145Z,3.23
2019-05-19T19:01:44.970Z,3.77
2019-05-19T19:04:15.377Z,2.87
2019-05-19T19:06:45.841Z,3.37
2019-05-19T19:09:16.424Z,3.00
2019-05-19T19:11:47.160Z,5.10
2019-05-19T19:14:17.773Z,2.90
2019-05-19T19:16:48.153Z,3.10
2019-05-19T19:19:18.526Z,3.03
2019-05-19T19:21:48.902Z,2.93
2019-05-19T19:24:19.501Z,2.83
2019-05-19T19:26:49.852Z,3.67
2019-05-19T19:29:20.246Z,3.27
2019-05-19T19:31:51.682Z,3.50
2019-05-19T19:34:22.292Z,3.30
2019-05-19T19:36:52.701Z,5.43
2019-05-19T19:39:23.224Z,3.30
2019-05-19T19:41:53.872Z,2.97
2019-05-19T19:44:25.489Z,4.33
2019-05-19T19:46:56.304Z,3.97
2019-05-19T19:49:28.444Z,3.43
2019-05-19T19:51:58.920Z,2.90
2019-05-19T19:54:29.285Z,3.60
2019-05-19T19:57:00.515Z,3.17
2019-05-19T19:59:31.128Z,3.87
2019-05-19T20:02:01.574Z,5.03
2019-05-19T20:04:32.537Z,3.97
2019-05-19T20:07:02.998Z,3.33
2019-05-19T20:09:33.348Z,3.50
2019-05-19T20:12:03.953Z,3.37
2019-05-19T20:14:34.293Z,3.63
2019-05-19T20:17:04.655Z,4.50
2019-05-19T20:19:35.247Z,4.70
2019-05-19T20:22:05.875Z,4.87
2019-05-19T20:24:36.296Z,6.17
2019-05-19T20:27:06.748Z,3.70
2019-05-19T20:29:37.432Z,5.47
2019-05-19T20:32:07.748Z,7.90
2019-05-19T20:34:38.226Z,3.60
2019-05-19T20:37:09.801Z,5.37
2019-05-19T20:39:40.287Z,4.20
2019-05-19T20:42:10.697Z,4.63
2019-05-19T20:44:41.509Z,5.97
2019-05-19T20:47:11.978Z,3.70
2019-05-19T20:49:42.484Z,5.10
2019-05-19T20:52:13.140Z,4.83
2019-05-19T20:54:43.622Z,5.67
2019-05-19T20:57:14.412Z,3.50
2019-05-19T20:59:44.885Z,4.10
2019-05-19T21:02:16.450Z,5.10
2019-05-19T21:04:47.193Z,3.80
2019-05-19T21:07:17.561Z,4.13
2019-05-19T21:09:48.202Z,4.73
2019-05-19T21:12:18.515Z,4.77
2019-05-19T21:14:48.884Z,4.30
2019-05-19T21:17:19.315Z,5.00
2019-05-19T21:19:51.309Z,4.17
2019-05-19T21:22:21.617Z,3.87
2019-05-19T21:24:52.306Z,4.73
2019-05-19T21:27:22.660Z,4.33
2019-05-19T21:29:53.070Z,4.90
2019-05-19T21:32:23.474Z,4.70
2019-05-19T21:34:54.137Z,5.37
2019-05-19T21:37:24.589Z,4.40
2019-05-19T21:39:55.476Z,5.50
2019-05-19T21:42:26.012Z,5.20
2019-05-19T21:44:56.344Z,4.53
2019-05-19T21:47:27.357Z,5.40
2019-05-19T21:49:57.708Z,4.07
2019-05-19T21:52:28.085Z,5.40
2019-05-19T21:54:59.567Z,3.40
2019-05-19T21:57:29.893Z,5.20
2019-05-19T22:02:59.594Z,3.87
2019-05-19T22:05:30.077Z,6.07
2019-05-19T22:08:04.746Z,6.70
2019-05-19T22:10:35.125Z,3.37
2019-05-19T22:13:05.522Z,3.90
2019-05-19T22:15:35.819Z,3.63
2019-05-19T22:18:06.519Z,3.20
2019-05-19T22:20:36.836Z,8.73
2019-05-19T22:23:07.524Z,2.80
2019-05-19T22:25:38.026Z,3.10
2019-05-19T22:28:08.431Z,2.80
2019-05-19T22:30:38.902Z,3.73
2019-05-19T22:33:09.786Z,3.07
2019-05-19T22:35:40.224Z,3.40
2019-05-19T22:38:10.642Z,3.60
2019-05-19T22:40:42.068Z,3.20
2019-05-19T22:43:12.499Z,3.30
2019-05-19T22:45:42.965Z,4.33
2019-05-19T22:48:13.402Z,3.03
2019-05-19T22:50:43.982Z,4.00
2019-05-19T22:53:14.421Z,5.13
2019-05-19T22:55:44.896Z,3.30
2019-05-19T22:58:15.695Z,3.53
2019-05-19T23:00:46.644Z,3.30
2019-05-19T23:03:17.254Z,3.73
2019-05-19T23:05:47.862Z,3.60
2019-05-19T23:08:18.335Z,1.43
2019-05-19T23:10:48.861Z,2.20
2019-05-19T23:13:19.638Z,1.87
2019-05-19T23:15:50.021Z,3.27
2019-05-19T23:18:20.425Z,1.30
2019-05-19T23:20:51.101Z,1.40
2019-05-19T23:23:21.437Z,2.50
2019-05-19T23:25:51.832Z,1.33
2019-05-19T23:28:22.237Z,1.30
2019-05-19T23:30:53.140Z,8.63
2019-05-19T23:33:23.454Z,2.30
2019-05-19T23:35:53.788Z,1.10
2019-05-19T23:38:24.537Z,1.10
2019-05-19T23:40:54.945Z,3.00
2019-05-19T23:43:25.268Z,1.27
2019-05-19T23:45:56.101Z,1.47
2019-05-19T23:48:26.376Z,1.40
2019-05-19T23:50:56.769Z,1.10
2019-05-19T23:53:27.142Z,1.30
2019-05-19T23:55:57.617Z,1.97
2019-05-19T23:58:28.001Z,1.20
